Time;durP1;ratioP1;P1;durP2;ratioP2;P2;SDS_P1;SDS_P2;PMS_P1;PMS_P2;Temp;Humidity;BMP_temperature;BMP_pressure;BME280_temperature;BME280_humidity;BME280_pressure;Samples;Min_cycle;Max_cycle;Signal;HPM_P1;HPM_P2
2024/01/26 13:39:38;;;;;;;;;;;;;;;6.72;84.86;102623.59;5059245;28;1280;-82
2024/01/26 13:42:04;;;;;;;;;;;;;;;6.74;85.29;102617.47;5039163;28;1676;-83
2024/01/26 13:44:29;;;;;;;;;;;;;;;6.92;84.89;102616.78;5036956;28;1016;-81
2024/01/26 13:46:54;;;;;;;;;;;;;;;6.84;85.34;102613.66;5040088;28;1142;-81
2024/01/26 13:49:19;;;;;;;;;;;;;;;6.95;83.89;102630.47;5051602;28;1529;-82
2024/01/26 13:51:45;;;;;;;;;;;;;;;6.92;83.42;102645.16;5045307;28;1126;-82
2024/01/26 13:54:10;;;;;;;;;;;;;;;6.87;83.25;102644.47;5037397;28;1404;-82
2024/01/26 13:56:37;;;;;;;;;;;;;;;6.75;86.18;102644.94;5036385;28;1301;-82
2024/01/26 13:59:03;;;;;;;;;;;;;;;6.92;85.16;102647.72;5039542;28;1911;-82
2024/01/26 14:01:28;;;;;;;;;;;;;;;6.91;82.42;102653.78;5039654;28;1215;-82
2024/01/26 14:03:54;;;;;;;;;;;;;;;6.82;83.60;102641.22;5037605;28;1100;-82
2024/01/26 14:06:19;;;;;;;;;;;;;;;7.00;82.25;102672.41;5030108;28;1168;-83
2024/01/26 14:08:44;;;;;;;;;;;;;;;6.86;81.19;102660.84;5038328;28;1076;-81
2024/01/26 14:11:09;;;;;;;;;;;;;;;6.88;80.88;102666.81;5037446;28;1179;-81
2024/01/26 14:13:35;;;;;;;;;;;;;;;6.70;79.28;102671.78;5037851;28;1124;-83
2024/01/26 14:16:00;;;;;;;;;;;;;;;6.78;82.18;102675.78;5039102;28;1184;-82
2024/01/26 14:18:25;;;;;;;;;;;;;;;6.88;81.39;102687.44;5042718;28;1902;-83
2024/01/26 14:20:54;;;;;;;;;;;;;;;6.79;82.75;102682.59;5032109;28;1074;-82
2024/01/26 14:23:19;;;;;;;;;;;;;;;6.64;84.27;102690.88;5035923;28;1229;-81
2024/01/26 14:25:46;;;;;;;;;;;;;;;6.67;83.26;102683.06;5024831;28;1604;-82
2024/01/26 14:28:13;;;;;;;;;;;;;;;6.76;82.76;102708.50;5027733;28;1083;-84
2024/01/26 14:30:38;;;;;;;;;;;;;;;6.79;81.73;102708.41;5038930;28;1234;-82
2024/01/26 14:33:05;;;;;;;;;;;;;;;6.76;82.50;102716.22;5035113;28;1145;-83
2024/01/26 14:35:30;;;;;;;;;;;;;;;6.73;83.42;102731.81;5036777;28;1304;-83
2024/01/26 14:37:56;;;;;;;;;;;;;;;6.61;84.06;102734.84;5039286;28;1882;-83
2024/01/26 14:40:21;;;;;;;;;;;;;;;6.79;83.64;102747.09;5070414;28;1240;-83
2024/01/26 14:42:47;;;;;;;;;;;;;;;6.66;83.57;102743.25;5049031;28;1404;-83
2024/01/26 14:45:12;;;;;;;;;;;;;;;6.73;83.36;102755.03;5063110;28;1115;-82
2024/01/26 14:47:39;;;;;;;;;;;;;;;6.54;85.13;102759.16;5049052;28;1290;-82
2024/01/26 14:50:07;;;;;;;;;;;;;;;6.43;86.76;102767.22;5053441;28;1177;-82
2024/01/26 14:52:32;;;;;;;;;;;;;;;6.66;85.95;102769.03;5045977;28;1180;-83
2024/01/26 14:54:59;;;;;;;;;;;;;;;6.63;84.21;102774.28;5039909;28;1136;-83
2024/01/26 14:57:27;;;;;;;;;;;;;;;6.62;82.64;102772.59;5034667;28;2377;-83
2024/01/26 14:59:52;;;;;;;;;;;;;;;6.54;82.32;102784.94;5048138;28;1087;-83
2024/01/26 15:02:18;;;;;;;;;;;;;;;6.37;86.04;102783.75;5040129;28;1183;-83
2024/01/26 15:04:44;;;;;;;;;;;;;;;6.54;84.99;102783.19;5040997;28;938;-83
2024/01/26 15:07:11;;;;;;;;;;;;;;;6.48;84.55;102795.41;5044090;28;1088;-83
2024/01/26 15:09:37;;;;;;;;;;;;;;;6.30;87.71;102789.97;5024084;28;1459;-83
2024/01/26 15:12:05;;;;;;;;;;;;;;;6.44;87.88;102799.00;5029715;28;1213;-83
2024/01/26 15:14:30;;;;;;;;;;;;;;;6.38;87.03;102811.19;5030523;28;1425;-83
2024/01/26 15:16:56;;;;;;;;;;;;;;;6.34;85.42;102809.59;5038251;28;1269;-82
2024/01/26 15:19:21;;;;;;;;;;;;;;;6.42;85.25;102816.22;5052303;28;1915;-84
2024/01/26 15:21:46;;;;;;;;;;;;;;;6.43;86.29;102815.38;5055381;28;1081;-83
2024/01/26 15:24:11;;;;;;;;;;;;;;;6.27;87.15;102813.25;5058743;28;1269;-81
2024/01/26 15:26:42;;;;;;;;;;;;;;;6.27;87.77;102839.03;5028096;28;1385;-82
2024/01/26 15:29:14;;;;;;;;;;;;;;;6.38;86.82;102836.97;5058554;28;1190;-84
2024/01/26 15:31:39;;;;;;;;;;;;;;;6.30;87.28;102844.06;5044407;28;1017;-82
2024/01/26 15:34:05;;;;;;;;;;;;;;;6.30;87.33;102854.38;5049434;28;1089;-83
2024/01/26 15:36:30;;;;;;;;;;;;;;;6.28;87.58;102858.75;5053564;28;1162;-83
2024/01/26 15:38:56;;;;;;;;;;;;;;;6.25;88.05;102865.72;5041855;28;1890;-84
2024/01/26 15:41:21;;;;;;;;;;;;;;;6.24;88.61;102864.88;5028771;28;1189;-83
2024/01/26 15:43:47;;;;;;;;;;;;;;;6.33;88.63;102874.09;5043274;28;1170;-83
2024/01/26 15:46:12;;;;;;;;;;;;;;;6.18;89.56;102870.22;5047079;28;1267;-83
2024/01/26 15:48:37;;;;;;;;;;;;;;;6.18;87.75;102877.97;5060205;28;1354;-83
2024/01/26 15:51:08;;;;;;;;;;;;;;;6.04;88.03;102890.41;5037359;28;1395;-83
2024/01/26 15:53:34;;;;;;;;;;;;;;;6.19;86.31;102887.38;5018875;28;1074;-83
2024/01/26 15:55:59;;;;;;;;;;;;;;;6.02;87.97;102889.59;5025932;28;1234;-83
2024/01/26 15:58:24;;;;;;;;;;;;;;;5.99;88.07;102894.84;5027369;28;1963;-82
2024/01/26 16:00:49;;;;;;;;;;;;;;;5.91;88.80;102894.19;5027161;28;1388;-83
2024/01/26 16:03:14;;;;;;;;;;;;;;;6.02;86.80;102905.06;5017514;28;1258;-83
2024/01/26 16:05:40;;;;;;;;;;;;;;;5.82;88.92;102903.88;5028606;28;1092;-82
2024/01/26 16:08:05;;;;;;;;;;;;;;;5.82;88.04;102908.19;5026056;28;1089;-83
2024/01/26 16:10:30;;;;;;;;;;;;;;;5.74;89.42;102921.28;5029818;28;1117;-84
2024/01/26 16:12:55;;;;;;;;;;;;;;;5.69;89.74;102918.00;5027730;28;1308;-83
2024/01/26 16:15:21;;;;;;;;;;;;;;;5.67;89.55;102924.88;5032442;28;1068;-84
2024/01/26 16:17:46;;;;;;;;;;;;;;;5.69;89.55;102932.59;5053208;28;1926;-83
2024/01/26 16:20:11;;;;;;;;;;;;;;;5.58;89.88;102935.44;5018550;28;1169;-84
2024/01/26 16:22:36;;;;;;;;;;;;;;;5.55;89.16;102946.66;5053044;28;1463;-83
2024/01/26 16:25:01;;;;;;;;;;;;;;;5.51;89.88;102944.22;5021086;28;1058;-84
2024/01/26 16:27:27;;;;;;;;;;;;;;;5.44;89.24;102953.81;5022499;28;1375;-83
2024/01/26 16:29:52;;;;;;;;;;;;;;;5.41;90.59;102963.38;5037802;28;1176;-83
2024/01/26 16:32:17;;;;;;;;;;;;;;;5.41;90.59;102965.94;5053375;28;1420;-83
2024/01/26 16:34:42;;;;;;;;;;;;;;;5.33;90.45;102966.97;5017336;28;1369;-82
2024/01/26 16:37:08;;;;;;;;;;;;;;;5.41;90.40;102969.34;5053641;28;1169;-83
2024/01/26 16:39:33;;;;;;;;;;;;;;;5.32;91.57;102980.72;5046702;28;1930;-84
2024/01/26 16:41:58;;;;;;;;;;;;;;;5.31;92.13;102979.03;5033758;28;1166;-82
2024/01/26 16:44:24;;;;;;;;;;;;;;;5.27;91.78;102982.53;5029254;28;1172;-83
2024/01/26 16:46:49;;;;;;;;;;;;;;;5.28;92.16;102986.84;5037097;28;1185;-83
2024/01/26 16:49:14;;;;;;;;;;;;;;;5.20;92.73;103004.16;5034586;28;1176;-82
2024/01/26 16:51:39;;;;;;;;;;;;;;;5.16;92.87;103002.56;5033841;28;1253;-83
2024/01/26 16:54:05;;;;;;;;;;;;;;;5.16;93.20;103010.28;5035292;28;1160;-82
2024/01/26 16:56:30;;;;;;;;;;;;;;;5.14;94.01;103006.88;5027107;28;1174;-83
2024/01/26 16:58:55;;;;;;;;;;;;;;;5.27;93.63;103008.28;5044979;28;1977;-84
2024/01/26 17:01:20;;;;;;;;;;;;;;;5.10;93.33;103007.84;5039903;28;1172;-83
2024/01/26 17:03:46;;;;;;;;;;;;;;;5.11;93.67;103017.25;5032938;28;1298;-83
2024/01/26 17:06:11;;;;;;;;;;;;;;;5.05;94.31;103025.97;5032980;28;1244;-83
2024/01/26 17:08:36;;;;;;;;;;;;;;;5.03;93.74;103026.88;5055435;28;1214;-82
2024/01/26 17:11:02;;;;;;;;;;;;;;;4.98;94.99;103031.28;5034503;28;1333;-83
2024/01/26 17:13:28;;;;;;;;;;;;;;;4.96;94.56;103033.88;5042814;28;1202;-83
2024/01/26 17:15:54;;;;;;;;;;;;;;;4.93;94.87;103038.25;5039132;28;1379;-82
2024/01/26 17:18:19;;;;;;;;;;;;;;;4.89;95.72;103036.63;5021401;28;1899;-81
2024/01/26 17:20:44;;;;;;;;;;;;;;;5.05;93.60;103043.13;5032683;28;1136;-82
2024/01/26 17:23:09;;;;;;;;;;;;;;;4.87;94.44;103048.66;5045823;28;1128;-82
2024/01/26 17:25:34;;;;;;;;;;;;;;;4.82;95.20;103050.47;5047010;28;1221;-83
2024/01/26 17:28:00;;;;;;;;;;;;;;;4.79;95.46;103052.25;5047889;28;1235;-83
2024/01/26 17:30:25;;;;;;;;;;;;;;;4.77;95.64;103059.16;5038473;28;1358;-82
2024/01/26 17:32:50;;;;;;;;;;;;;;;4.75;96.01;103055.75;5036439;28;1254;-83
2024/01/26 17:35:15;;;;;;;;;;;;;;;4.73;96.31;103067.81;5035034;28;1066;-83
2024/01/26 17:37:40;;;;;;;;;;;;;;;4.71;96.21;103069.56;5039766;28;1914;-84
2024/01/26 17:40:09;;;;;;;;;;;;;;;4.68;96.63;103069.63;5048874;28;1113;-83
2024/01/26 17:42:35;;;;;;;;;;;;;;;4.72;96.00;103080.72;5046850;28;1183;-84
2024/01/26 17:45:00;;;;;;;;;;;;;;;4.73;96.65;103083.22;5042502;28;1397;-83
2024/01/26 17:47:25;;;;;;;;;;;;;;;4.65;95.90;103087.69;5024504;28;1209;-83
2024/01/26 17:49:50;;;;;;;;;;;;;;;4.58;97.05;103096.38;5036538;28;1241;-82
2024/01/26 17:52:15;;;;;;;;;;;;;;;4.56;96.92;103100.72;5049454;28;1321;-82
2024/01/26 17:54:40;;;;;;;;;;;;;;;4.57;97.42;103097.28;5041390;28;1309;-83
2024/01/26 17:57:06;;;;;;;;;;;;;;;4.55;97.09;103103.34;5043389;28;1085;-83
2024/01/26 17:59:32;;;;;;;;;;;;;;;4.51;97.63;103107.69;5047888;28;1953;-81
2024/01/26 18:01:57;;;;;;;;;;;;;;;4.46;97.55;103105.19;5046606;28;1347;-82
2024/01/26 18:04:22;;;;;;;;;;;;;;;4.44;97.60;103117.22;5050085;28;1204;-83
2024/01/26 18:06:49;;;;;;;;;;;;;;;4.44;98.14;103119.78;5048418;28;1251;-83
2024/01/26 18:09:14;;;;;;;;;;;;;;;4.42;98.18;103118.16;5046270;28;1139;-82
2024/01/26 18:11:39;;;;;;;;;;;;;;;4.37;98.35;103117.38;5052222;28;1087;-83
2024/01/26 18:14:04;;;;;;;;;;;;;;;4.34;98.29;103125.13;5045773;28;1092;-84
2024/01/26 18:16:29;;;;;;;;;;;;;;;4.31;98.50;103126.06;5046626;28;1227;-83
2024/01/26 18:18:55;;;;;;;;;;;;;;;4.31;98.57;103122.63;5033830;28;1948;-81
2024/01/26 18:21:20;;;;;;;;;;;;;;;4.25;98.55;103127.00;5042497;28;1124;-82
2024/01/26 18:23:45;;;;;;;;;;;;;;;4.22;98.79;103134.75;5040225;28;1082;-83
2024/01/26 18:26:13;;;;;;;;;;;;;;;4.21;98.60;103135.63;5046314;28;1217;-83
2024/01/26 18:28:38;;;;;;;;;;;;;;;4.24;98.56;103140.72;5051663;28;1097;-83
2024/01/26 18:31:03;;;;;;;;;;;;;;;4.22;98.71;103152.72;5054792;28;1370;-84
2024/01/26 18:33:29;;;;;;;;;;;;;;;4.18;98.97;103150.25;5039862;28;1236;-83
2024/01/26 18:35:54;;;;;;;;;;;;;;;4.15;98.88;103156.28;5053401;28;1136;-84
2024/01/26 18:38:20;;;;;;;;;;;;;;;4.13;99.27;103152.91;5042363;28;1894;-83
2024/01/26 18:40:45;;;;;;;;;;;;;;;4.11;99.37;103166.63;5040813;28;1375;-83
2024/01/26 18:43:10;;;;;;;;;;;;;;;4.08;99.42;103159.84;5055540;28;1142;-84
2024/01/26 18:45:35;;;;;;;;;;;;;;;4.07;99.56;103163.28;5052930;28;1125;-83
2024/01/26 18:48:00;;;;;;;;;;;;;;;4.07;99.99;103163.28;5043536;28;1270;-83
2024/01/26 18:50:25;;;;;;;;;;;;;;;4.02;99.73;103180.50;5056137;28;1027;-83
2024/01/26 18:52:51;;;;;;;;;;;;;;;3.99;99.87;103175.41;5051072;28;1153;-84
2024/01/26 18:55:16;;;;;;;;;;;;;;;3.97;99.91;103179.72;5043349;28;1190;-83
2024/01/26 18:57:41;;;;;;;;;;;;;;;3.95;100.00;103189.16;5043707;28;1969;-83
2024/01/26 19:00:06;;;;;;;;;;;;;;;3.89;100.00;103187.53;5045475;28;1372;-83
2024/01/26 19:02:32;;;;;;;;;;;;;;;3.85;100.00;103182.50;5045250;28;2146;-84
2024/01/26 19:04:57;;;;;;;;;;;;;;;3.82;100.00;103197.91;5040695;28;1355;-84
2024/01/26 19:07:22;;;;;;;;;;;;;;;3.78;100.00;103191.13;5039902;28;1017;-83
2024/01/26 19:09:48;;;;;;;;;;;;;;;3.75;100.00;103201.47;5037492;28;1097;-83
2024/01/26 19:12:13;;;;;;;;;;;;;;;3.66;100.00;103203.28;5041269;28;1246;-82
2024/01/26 19:14:39;;;;;;;;;;;;;;;3.66;100.00;103205.84;5042157;28;1399;-84
2024/01/26 19:17:05;;;;;;;;;;;;;;;3.57;100.00;103207.72;5039112;28;1184;-82
2024/01/26 19:19:30;;;;;;;;;;;;;;;3.51;100.00;103216.34;5040881;28;1989;-82
2024/01/26 19:21:55;;;;;;;;;;;;;;;3.50;100.00;103212.09;5054387;28;1129;-83
2024/01/26 19:24:21;;;;;;;;;;;;;;;3.48;100.00;103213.78;5042578;28;1488;-85
2024/01/26 19:26:46;;;;;;;;;;;;;;;3.48;100.00;103218.94;5038870;28;1101;-82
2024/01/26 19:29:11;;;;;;;;;;;;;;;3.45;100.00;103219.00;5040940;28;1072;-83
2024/01/26 19:31:36;;;;;;;;;;;;;;;3.41;100.00;103222.44;5046940;28;1084;-83
2024/01/26 19:34:02;;;;;;;;;;;;;;;3.36;100.00;103224.22;5052312;28;1790;-83
2024/01/26 19:36:27;;;;;;;;;;;;;;;3.33;100.00;103224.28;5052166;28;939;-84
2024/01/26 19:38:53;;;;;;;;;;;;;;;3.32;100.00;103222.56;5046031;28;1902;-84
2024/01/26 19:41:18;;;;;;;;;;;;;;;3.31;100.00;103226.00;5046506;28;1234;-82
2024/01/26 19:43:44;;;;;;;;;;;;;;;3.32;100.00;103227.69;5050237;28;1219;-83
2024/01/26 19:46:09;;;;;;;;;;;;;;;3.29;100.00;103235.44;5050794;28;1314;-81
2024/01/26 19:48:34;;;;;;;;;;;;;;;3.28;100.00;103236.31;5039660;28;1374;-82
2024/01/26 19:51:02;;;;;;;;;;;;;;;3.24;100.00;103232.94;5044831;28;1901;-84
2024/01/26 19:53:28;;;;;;;;;;;;;;;3.23;100.00;103243.22;5051911;28;1501;-84
2024/01/26 19:55:53;;;;;;;;;;;;;;;3.22;100.00;103241.50;5050210;28;1340;-84
2024/01/26 19:58:18;;;;;;;;;;;;;;;3.17;100.00;103250.09;5054437;28;1930;-83
2024/01/26 20:00:43;;;;;;;;;;;;;;;3.18;100.00;103249.22;5046514;28;1051;-83
2024/01/26 20:03:11;;;;;;;;;;;;;;;3.16;100.00;103253.53;5040582;28;1232;-83
2024/01/26 20:05:36;;;;;;;;;;;;;;;3.14;100.00;103244.16;5036382;28;1379;-84
2024/01/26 20:08:02;;;;;;;;;;;;;;;3.13;100.00;103247.59;5036898;28;1412;-83
2024/01/26 20:10:27;;;;;;;;;;;;;;;3.14;100.00;103249.28;5045066;28;1165;-82
2024/01/26 20:12:52;;;;;;;;;;;;;;;3.12;100.00;103246.75;5035770;28;1037;-82
2024/01/26 20:15:17;;;;;;;;;;;;;;;3.10;100.00;103243.34;5044017;28;1211;-83
2024/01/26 20:17:42;;;;;;;;;;;;;;;3.09;100.00;103246.75;5045228;28;1965;-83
2024/01/26 20:20:09;;;;;;;;;;;;;;;3.07;100.00;103248.50;5045156;28;1211;-83
2024/01/26 20:22:35;;;;;;;;;;;;;;;3.08;100.00;103260.44;5045291;28;1294;-84
2024/01/26 20:25:00;;;;;;;;;;;;;;;3.06;100.00;103261.34;5055167;28;1301;-83
2024/01/26 20:27:26;;;;;;;;;;;;;;;3.06;100.00;103256.22;5056025;28;1120;-84
2024/01/26 20:29:51;;;;;;;;;;;;;;;3.08;100.00;103257.88;5046406;28;1599;-82
2024/01/26 20:32:16;;;;;;;;;;;;;;;3.04;100.00;103263.94;5056212;28;1332;-83
2024/01/26 20:34:42;;;;;;;;;;;;;;;3.01;100.00;103253.69;5048544;28;1080;-82
2024/01/26 20:37:07;;;;;;;;;;;;;;;3.01;100.00;103260.53;5054743;28;1239;-83
2024/01/26 20:39:32;;;;;;;;;;;;;;;3.00;100.00;103266.53;5046823;28;1902;-84
2024/01/26 20:41:59;;;;;;;;;;;;;;;2.97;100.00;103257.16;5054117;28;1238;-84
2024/01/26 20:44:26;;;;;;;;;;;;;;;2.99;100.00;103255.44;5043303;28;1390;-84
2024/01/26 20:46:52;;;;;;;;;;;;;;;2.98;100.00;103258.00;5046667;28;1184;-83
2024/01/26 20:49:17;;;;;;;;;;;;;;;2.95;100.00;103266.59;5043589;28;990;-82
2024/01/26 20:51:42;;;;;;;;;;;;;;;2.92;100.00;103259.78;5045702;28;1091;-82
2024/01/26 20:54:07;;;;;;;;;;;;;;;2.88;100.00;103262.41;5051824;28;1182;-82
2024/01/26 20:56:33;;;;;;;;;;;;;;;2.90;100.00;103271.75;5049311;28;1136;-84
2024/01/26 20:58:59;;;;;;;;;;;;;;;2.89;100.00;103274.34;5052321;28;2015;-83
2024/01/26 21:01:24;;;;;;;;;;;;;;;2.91;100.00;103277.72;5045697;28;1052;-84
2024/01/26 21:03:49;;;;;;;;;;;;;;;2.83;100.00;103270.13;5041647;28;1451;-84
2024/01/26 21:06:14;;;;;;;;;;;;;;;2.81;100.00;103271.00;5041063;28;1363;-83
2024/01/26 21:08:40;;;;;;;;;;;;;;;2.78;100.00;103266.75;5046823;28;1130;-83
2024/01/26 21:11:05;;;;;;;;;;;;;;;2.79;100.00;103272.72;5038582;28;1078;-84
2024/01/26 21:13:31;;;;;;;;;;;;;;;2.72;100.00;103271.09;5038387;28;1191;-83
2024/01/26 21:15:56;;;;;;;;;;;;;;;2.73;100.00;103265.09;5047075;28;1205;-82
2024/01/26 21:18:22;;;;;;;;;;;;;;;2.70;100.00;103272.84;5043407;28;1898;-83
2024/01/26 21:20:47;;;;;;;;;;;;;;;2.70;100.00;103277.97;5061623;28;1345;-83
2024/01/26 21:23:12;;;;;;;;;;;;;;;2.69;100.00;103281.34;5040026;28;1121;-82
2024/01/26 21:25:38;;;;;;;;;;;;;;;2.66;100.00;103283.09;5049951;28;1376;-83
2024/01/26 21:28:03;;;;;;;;;;;;;;;2.66;100.00;103267.72;5055920;28;1375;-83
2024/01/26 21:30:28;;;;;;;;;;;;;;;2.63;100.00;103278.00;5039898;28;1141;-82
2024/01/26 21:32:54;;;;;;;;;;;;;;;2.62;100.00;103273.72;5042838;28;1371;-84
2024/01/26 21:35:19;;;;;;;;;;;;;;;2.59;100.00;103276.34;5042663;28;1033;-81
2024/01/26 21:37:45;;;;;;;;;;;;;;;2.59;100.00;103285.75;5047297;28;1965;-80
2024/01/26 21:40:10;;;;;;;;;;;;;;;2.55;100.00;103290.03;5053431;28;987;-83
2024/01/26 21:42:36;;;;;;;;;;;;;;;2.52;100.00;103294.31;5044521;28;1302;-81
2024/01/26 21:45:01;;;;;;;;;;;;;;;2.46;100.00;103300.34;5054409;28;1113;-82
2024/01/26 21:47:26;;;;;;;;;;;;;;;2.45;100.00;103297.78;5048043;28;966;-83
2024/01/26 21:49:51;;;;;;;;;;;;;;;2.44;100.00;103302.06;5047666;28;1135;-82
2024/01/26 21:52:17;;;;;;;;;;;;;;;2.42;100.00;103303.81;5054792;28;957;-82
2024/01/26 21:54:42;;;;;;;;;;;;;;;2.37;100.00;103298.72;5051455;28;1019;-80
2024/01/26 21:57:07;;;;;;;;;;;;;;;2.38;100.00;103307.25;5048997;28;1291;-82
2024/01/26 21:59:33;;;;;;;;;;;;;;;2.36;100.00;103299.59;5047685;28;1973;-83
2024/01/26 22:01:58;;;;;;;;;;;;;;;2.34;100.00;103305.56;5044180;28;1237;-80
2024/01/26 22:04:23;;;;;;;;;;;;;;;2.34;100.00;103310.69;5038910;28;1425;-81
2024/01/26 22:06:51;;;;;;;;;;;;;;;2.30;100.00;103314.16;5043242;28;1319;-83
2024/01/26 22:09:17;;;;;;;;;;;;;;;2.30;100.00;103319.25;5041057;28;1237;-82
2024/01/26 22:11:43;;;;;;;;;;;;;;;2.24;100.00;103311.63;5063367;28;1086;-81
2024/01/26 22:14:08;;;;;;;;;;;;;;;2.22;100.00;103310.78;5051447;28;1076;-82
2024/01/26 22:16:33;;;;;;;;;;;;;;;2.19;100.00;103321.03;5058508;28;1245;-82
2024/01/26 22:18:59;;;;;;;;;;;;;;;2.18;100.00;103319.31;5052750;28;1956;-83
2024/01/26 22:21:24;;;;;;;;;;;;;;;2.15;100.00;103324.47;5048291;28;1311;-81
2024/01/26 22:23:50;;;;;;;;;;;;;;;2.15;100.00;103319.34;5045324;28;1209;-83
2024/01/26 22:26:19;;;;;;;;;;;;;;;2.16;100.00;103310.81;5042910;28;1294;-83
2024/01/26 22:28:44;;;;;;;;;;;;;;;2.12;100.00;103315.97;5043978;28;1179;-81
2024/01/26 22:31:09;;;;;;;;;;;;;;;2.11;100.00;103314.25;5041596;28;1485;-82
2024/01/26 22:33:34;;;;;;;;;;;;;;;2.15;100.00;103327.03;5048627;28;1136;-83
2024/01/26 22:36:00;;;;;;;;;;;;;;;2.17;100.00;103332.97;5056791;28;1136;-82
2024/01/26 22:38:25;;;;;;;;;;;;;;;2.11;100.00;103324.47;5058039;28;1886;-81
2024/01/26 22:40:50;;;;;;;;;;;;;;;2.10;100.00;103327.91;5052989;28;1099;-83
2024/01/26 22:43:16;;;;;;;;;;;;;;;2.04;100.00;103321.97;5061373;28;1091;-83
2024/01/26 22:45:41;;;;;;;;;;;;;;;2.05;100.00;103324.53;5050418;28;1185;-79
2024/01/26 22:48:06;;;;;;;;;;;;;;;2.06;100.00;103328.78;5046389;28;1581;-81
2024/01/26 22:50:32;;;;;;;;;;;;;;;2.05;100.00;103339.88;5044526;28;1185;-82
2024/01/26 22:52:57;;;;;;;;;;;;;;;2.05;100.00;103345.00;5036150;28;1084;-83
2024/01/26 22:55:22;;;;;;;;;;;;;;;2.04;100.00;103335.63;5055290;28;1408;-82
2024/01/26 22:57:47;;;;;;;;;;;;;;;2.02;100.00;103336.50;5048348;28;1945;-82
2024/01/26 23:00:24;;;;;;;;;;;;;;;2.04;100.00;103338.19;5043586;28;1163;-81
2024/01/26 23:02:49;;;;;;;;;;;;;;;2.02;100.00;103345.03;5042994;28;1196;-83
2024/01/26 23:05:15;;;;;;;;;;;;;;;1.98;100.00;103348.47;5063562;28;1499;-84
2024/01/26 23:07:40;;;;;;;;;;;;;;;1.92;100.00;103356.16;5045374;28;1076;-82
2024/01/26 23:10:05;;;;;;;;;;;;;;;1.90;100.00;103354.50;5038218;28;1190;-83
2024/01/26 23:12:30;;;;;;;;;;;;;;;1.86;100.00;103359.59;5048387;28;1154;-83
2024/01/26 23:14:56;;;;;;;;;;;;;;;1.88;100.00;103356.19;5046738;28;1124;-83
2024/01/26 23:17:22;;;;;;;;;;;;;;;1.86;100.00;103361.31;5051551;28;1417;-81
2024/01/26 23:19:48;;;;;;;;;;;;;;;1.86;100.00;103369.00;5046653;28;1906;-82
2024/01/26 23:22:13;;;;;;;;;;;;;;;1.84;100.00;103365.59;5047645;28;1204;-83
2024/01/26 23:24:38;;;;;;;;;;;;;;;1.87;100.00;103370.69;5051540;28;1149;-83
2024/01/26 23:27:04;;;;;;;;;;;;;;;1.85;100.00;103367.28;5052173;28;1244;-82
2024/01/26 23:29:29;;;;;;;;;;;;;;;1.83;100.00;103374.09;5050038;28;1494;-83
2024/01/26 23:31:54;;;;;;;;;;;;;;;1.80;100.00;103374.13;5061324;28;1080;-83
2024/01/26 23:34:19;;;;;;;;;;;;;;;1.78;100.00;103380.97;5041732;28;1190;-82
2024/01/26 23:36:44;;;;;;;;;;;;;;;1.76;100.00;103380.13;5057721;28;1144;-82
2024/01/26 23:39:10;;;;;;;;;;;;;;;1.72;100.00;103380.97;5049302;28;1902;-83
2024/01/26 23:41:35;;;;;;;;;;;;;;;1.71;100.00;103386.94;5038155;28;1250;-83
2024/01/26 23:44:00;;;;;;;;;;;;;;;1.72;100.00;103386.09;5049485;28;1128;-83
2024/01/26 23:46:25;;;;;;;;;;;;;;;1.69;100.00;103381.84;5044471;28;1025;-83
2024/01/26 23:48:51;;;;;;;;;;;;;;;1.70;100.00;103382.69;5053986;28;1190;-82
2024/01/26 23:51:16;;;;;;;;;;;;;;;1.69;100.00;103381.00;5051215;28;1378;-82
2024/01/26 23:53:41;;;;;;;;;;;;;;;1.66;100.00;103381.00;5048176;28;1665;-83
2024/01/26 23:56:09;;;;;;;;;;;;;;;1.64;100.00;103380.16;5058129;28;1143;-83
2024/01/26 23:58:35;;;;;;;;;;;;;;;1.66;100.00;103370.75;5055315;28;2004;-82
